createdAt,value
2022-09-23T00:02:00.205Z,3.85
2022-09-23T00:04:27.341Z,4.07
2022-09-23T00:06:53.694Z,3.78
2022-09-23T00:09:20.029Z,4.00
2022-09-23T00:11:46.351Z,4.63
2022-09-23T00:14:13.071Z,5.07
2022-09-23T00:16:40.041Z,5.43
2022-09-23T00:19:06.646Z,5.28
2022-09-23T00:21:33.189Z,6.10
2022-09-23T00:23:59.587Z,6.38
2022-09-23T00:26:26.354Z,5.97
2022-09-23T00:28:52.887Z,5.95
2022-09-23T00:31:21.124Z,6.13
2022-09-23T00:33:47.554Z,6.15
2022-09-23T00:36:17.898Z,6.50
2022-09-23T00:38:45.150Z,7.30
2022-09-23T00:41:12.309Z,6.40
2022-09-23T00:43:38.838Z,6.78
2022-09-23T00:46:06.640Z,7.53
2022-09-23T00:48:33.024Z,6.28
2022-09-23T00:50:59.821Z,6.75
2022-09-23T00:53:29.311Z,6.97
2022-09-23T00:55:57.575Z,6.28
2022-09-23T00:58:26.754Z,7.03
2022-09-23T01:00:53.906Z,6.05
2022-09-23T01:03:22.918Z,6.53
2022-09-23T01:05:50.085Z,6.47
2022-09-23T01:08:16.584Z,7.35
2022-09-23T01:10:52.711Z,6.53
2022-09-23T01:13:19.125Z,7.00
2022-09-23T01:15:49.670Z,6.57
2022-09-23T01:18:25.390Z,6.13
2022-09-23T01:21:27.148Z,7.10
2022-09-23T01:23:56.161Z,6.63
2022-09-23T01:26:48.466Z,6.35
2022-09-23T01:29:23.782Z,6.07
2022-09-23T01:31:58.906Z,5.90
2022-09-23T01:34:31.158Z,6.47
2022-09-23T01:37:01.801Z,7.03
2022-09-23T01:39:35.984Z,6.18
2022-09-23T01:42:17.617Z,6.38
2022-09-23T01:44:51.319Z,7.10
2022-09-23T01:47:22.715Z,6.50
2022-09-23T01:49:59.078Z,6.30
2022-09-23T01:52:35.256Z,7.25
2022-09-23T01:55:04.629Z,6.45
2022-09-23T01:57:33.301Z,7.47
2022-09-23T02:00:04.383Z,6.75
2022-09-23T02:02:41.936Z,6.47
2022-09-23T02:05:14.839Z,6.43
2022-09-23T02:07:47.036Z,7.25
2022-09-23T02:12:43.937Z,7.35
2022-09-23T02:15:12.318Z,6.95
2022-09-23T02:17:59.053Z,7.05
2022-09-23T02:20:28.702Z,6.95
2022-09-23T02:23:16.850Z,6.68
2022-09-23T02:25:56.489Z,6.15
2022-09-23T02:28:31.644Z,7.07
2022-09-23T02:31:14.927Z,7.15
2022-09-23T02:33:51.513Z,7.88
2022-09-23T02:36:53.556Z,7.30
2022-09-23T02:39:22.690Z,7.80
2022-09-23T02:41:53.899Z,6.65
2022-09-23T02:44:20.666Z,6.55
2022-09-23T02:46:47.032Z,6.78
2022-09-23T02:49:24.539Z,8.02
2022-09-23T02:51:52.151Z,7.50
2022-09-23T02:54:19.969Z,7.13
2022-09-23T02:56:49.410Z,8.07
2022-09-23T02:59:19.343Z,7.10
2022-09-23T03:02:14.070Z,7.38
2022-09-23T03:04:59.469Z,7.82
2022-09-23T03:07:32.157Z,7.95
2022-09-23T03:12:25.105Z,7.18
2022-09-23T03:14:51.488Z,7.72
2022-09-23T03:17:25.608Z,7.15
2022-09-23T03:20:10.808Z,6.55
2022-09-23T03:22:40.072Z,7.00
2022-09-23T03:25:08.849Z,6.93
2022-09-23T03:27:36.085Z,6.35
2022-09-23T03:30:02.827Z,7.57
2022-09-23T03:32:29.529Z,7.65
2022-09-23T03:34:57.365Z,7.55
2022-09-23T03:37:47.001Z,6.90
2022-09-23T03:40:19.391Z,6.57
2022-09-23T03:42:48.828Z,6.88
2022-09-23T03:45:18.400Z,7.25
2022-09-23T03:47:44.770Z,6.35
2022-09-23T03:50:13.280Z,6.47
2022-09-23T03:52:40.095Z,6.35
2022-09-23T03:55:07.084Z,6.25
2022-09-23T03:57:33.566Z,6.40
2022-09-23T03:59:59.952Z,6.22
2022-09-23T04:02:26.868Z,6.60
2022-09-23T04:04:53.328Z,6.00
2022-09-23T04:07:19.825Z,6.40
2022-09-23T04:09:46.253Z,5.97
2022-09-23T04:12:13.893Z,5.70
2022-09-23T04:14:40.600Z,6.57
2022-09-23T04:17:07.037Z,7.05
2022-09-23T04:19:33.399Z,6.18
2022-09-23T04:22:00.009Z,6.25
2022-09-23T04:24:26.419Z,6.05
2022-09-23T04:26:53.631Z,6.60
2022-09-23T04:29:20.399Z,5.43
2022-09-23T04:31:47.022Z,5.57
2022-09-23T04:34:15.736Z,5.85
2022-09-23T04:36:42.140Z,6.75
2022-09-23T04:39:08.514Z,6.13
2022-09-23T04:41:35.971Z,6.30
2022-09-23T04:44:02.642Z,5.82
2022-09-23T04:46:29.078Z,5.85
2022-09-23T04:48:55.577Z,5.30
2022-09-23T04:51:22.866Z,6.80
2022-09-23T04:53:50.437Z,5.90
2022-09-23T04:56:18.254Z,5.72
2022-09-23T04:58:45.493Z,5.88
2022-09-23T05:01:13.407Z,5.07
2022-09-23T05:03:40.781Z,5.70
2022-09-23T05:06:07.720Z,6.72
2022-09-23T05:08:34.810Z,5.70
2022-09-23T05:11:04.718Z,5.43
2022-09-23T05:13:32.512Z,5.85
2022-09-23T05:15:59.735Z,5.65
2022-09-23T05:18:26.176Z,5.85
2022-09-23T05:20:53.618Z,5.88
2022-09-23T05:23:19.953Z,5.95
2022-09-23T05:25:46.368Z,6.57
2022-09-23T05:28:12.730Z,5.65
2022-09-23T05:30:39.161Z,5.28
2022-09-23T05:33:05.458Z,5.70
2022-09-23T05:35:31.812Z,6.20
2022-09-23T05:37:58.201Z,5.47
2022-09-23T05:40:24.664Z,5.22
2022-09-23T05:42:51.329Z,5.20
2022-09-23T05:45:17.764Z,5.60
2022-09-23T05:47:44.156Z,4.70
2022-09-23T05:50:10.698Z,5.40
2022-09-23T05:52:37.036Z,5.93
2022-09-23T05:55:03.496Z,5.25
2022-09-23T05:57:30.006Z,4.78
2022-09-23T05:59:56.337Z,5.70
2022-09-23T06:02:22.708Z,5.50
2022-09-23T06:04:49.112Z,4.90
2022-09-23T06:07:15.440Z,5.32
2022-09-23T06:09:42.274Z,5.75
2022-09-23T06:12:08.601Z,4.90
2022-09-23T06:14:34.938Z,4.38
2022-09-23T06:17:01.345Z,4.97
2022-09-23T06:19:27.705Z,5.15
2022-09-23T06:21:54.073Z,4.30
2022-09-23T06:24:23.046Z,5.28
2022-09-23T06:26:52.424Z,5.35
2022-09-23T06:29:18.864Z,4.43
2022-09-23T06:31:45.299Z,4.68
2022-09-23T06:34:13.731Z,4.88
2022-09-23T06:36:44.439Z,5.00
2022-09-23T06:39:11.833Z,5.47
2022-09-23T06:41:39.086Z,4.53
2022-09-23T06:44:11.269Z,5.18
2022-09-23T06:46:37.768Z,4.75
2022-09-23T06:49:04.149Z,5.07
2022-09-23T06:51:30.549Z,4.32
2022-09-23T06:53:56.860Z,4.95
2022-09-23T06:56:23.656Z,5.32
2022-09-23T06:58:51.473Z,4.90
2022-09-23T07:01:18.283Z,4.68
2022-09-23T07:03:45.418Z,4.78
2022-09-23T07:06:11.793Z,5.20
2022-09-23T07:08:38.373Z,5.25
2022-09-23T07:11:06.020Z,4.68
2022-09-23T07:13:33.461Z,4.75
2022-09-23T07:16:01.754Z,5.35
2022-09-23T07:18:34.280Z,5.10
2022-09-23T07:21:16.202Z,4.93
2022-09-23T07:23:43.300Z,4.78
2022-09-23T07:26:09.830Z,5.30
2022-09-23T07:28:36.979Z,4.60
2022-09-23T07:31:04.275Z,5.18
2022-09-23T07:33:33.063Z,5.00
2022-09-23T07:36:03.315Z,5.72
2022-09-23T07:38:30.356Z,4.47
2022-09-23T07:41:16.834Z,4.57
2022-09-23T07:43:44.028Z,4.40
2022-09-23T07:46:14.085Z,4.72
2022-09-23T07:48:40.543Z,4.72
2022-09-23T07:51:08.402Z,4.35
2022-09-23T07:53:34.723Z,4.22
2022-09-23T07:56:01.153Z,4.38
2022-09-23T07:58:27.475Z,4.47
2022-09-23T08:00:54.004Z,4.25
2022-09-23T08:03:20.780Z,4.85
2022-09-23T08:05:47.135Z,3.88
2022-09-23T08:08:14.117Z,5.30
2022-09-23T08:10:40.497Z,5.00
2022-09-23T08:13:06.887Z,5.00
2022-09-23T08:15:33.595Z,4.53
2022-09-23T08:18:00.395Z,4.40
2022-09-23T08:20:47.342Z,4.85
2022-09-23T08:23:15.389Z,5.05
2022-09-23T08:25:44.598Z,5.32
2022-09-23T08:28:14.141Z,4.93
2022-09-23T08:30:40.655Z,4.55
2022-09-23T08:33:07.000Z,4.20
2022-09-23T08:35:33.312Z,3.95
2022-09-23T08:37:59.685Z,4.95
2022-09-23T08:40:26.079Z,4.05
2022-09-23T08:42:52.791Z,4.70
2022-09-23T08:45:21.651Z,4.80
2022-09-23T08:47:50.735Z,4.95
2022-09-23T08:50:17.961Z,4.57
2022-09-23T08:52:49.084Z,5.00
2022-09-23T08:55:16.034Z,5.57
2022-09-23T08:58:02.194Z,4.80
2022-09-23T09:00:39.823Z,4.60
2022-09-23T09:03:18.176Z,4.97
2022-09-23T09:05:53.736Z,5.78
2022-09-23T09:08:26.178Z,5.43
2022-09-23T09:10:55.069Z,5.25
2022-09-23T09:13:32.548Z,5.07
2022-09-23T09:16:14.219Z,5.00
2022-09-23T09:18:48.448Z,4.95
2022-09-23T09:21:15.930Z,5.40
2022-09-23T09:23:53.830Z,5.22
2022-09-23T09:26:32.005Z,5.22
2022-09-23T09:29:17.233Z,5.00
2022-09-23T09:31:50.085Z,4.70
2022-09-23T09:34:36.631Z,5.60
2022-09-23T09:37:07.461Z,5.88
2022-09-23T09:39:34.885Z,5.20
2022-09-23T09:42:01.780Z,5.10
2022-09-23T09:44:37.343Z,5.10
2022-09-23T09:47:14.654Z,5.75
2022-09-23T09:49:53.987Z,4.78
2022-09-23T09:52:20.500Z,6.22
2022-09-23T09:54:49.296Z,6.43
2022-09-23T09:57:18.295Z,6.00
2022-09-23T09:59:44.606Z,6.03
2022-09-23T10:02:22.297Z,5.72
2022-09-23T10:04:55.131Z,5.63
2022-09-23T10:07:24.660Z,6.03
2022-09-23T10:09:51.306Z,8.13
2022-09-23T10:12:19.014Z,6.13
2022-09-23T10:14:52.540Z,7.00
2022-09-23T10:17:28.156Z,8.07
2022-09-23T10:20:00.730Z,8.95
2022-09-23T10:22:36.327Z,9.05
2022-09-23T10:25:07.419Z,7.93
2022-09-23T10:27:37.359Z,7.22
2022-09-23T10:30:05.455Z,6.88
2022-09-23T10:32:32.528Z,6.50
2022-09-23T10:35:01.758Z,7.97
2022-09-23T10:37:34.265Z,8.82
2022-09-23T10:43:32.025Z,6.88
2022-09-23T10:46:19.525Z,8.13
2022-09-23T10:48:54.104Z,8.38
2022-09-23T10:51:29.776Z,7.03
2022-09-23T10:54:18.274Z,8.18
2022-09-23T10:56:50.646Z,7.55
2022-09-23T10:59:35.750Z,8.00
2022-09-23T11:02:08.613Z,8.70
2022-09-23T11:04:57.554Z,8.15
2022-09-23T11:07:37.201Z,9.65
2022-09-23T11:10:42.249Z,9.52
2022-09-23T11:13:24.620Z,9.95
2022-09-23T11:15:57.042Z,9.88
2022-09-23T11:20:49.711Z,10.00
2022-09-23T11:23:22.133Z,12.15
2022-09-23T11:28:35.583Z,10.90
2022-09-23T11:31:21.207Z,10.23
2022-09-23T11:34:04.164Z,8.85
2022-09-23T11:36:30.478Z,10.13
2022-09-23T11:38:59.701Z,9.73
2022-09-23T11:41:32.749Z,8.15
2022-09-23T11:44:04.212Z,9.25
2022-09-23T11:46:34.385Z,8.48
2022-09-23T11:49:40.004Z,8.32
2022-09-23T11:52:20.517Z,8.10
2022-09-23T11:54:59.592Z,7.88
2022-09-23T11:57:26.269Z,8.80
2022-09-23T11:59:56.866Z,8.35
2022-09-23T12:02:31.382Z,9.18
2022-09-23T12:05:09.115Z,9.85
2022-09-23T12:07:56.542Z,8.85
2022-09-23T12:10:27.418Z,8.63
2022-09-23T12:13:00.591Z,8.32
2022-09-23T12:15:34.357Z,8.50
2022-09-23T12:18:03.368Z,9.18
2022-09-23T12:20:48.355Z,8.82
2022-09-23T12:23:24.466Z,9.00
2022-09-23T12:26:02.677Z,8.75
2022-09-23T12:28:31.211Z,8.00
2022-09-23T12:30:59.056Z,8.27
2022-09-23T12:33:27.465Z,6.40
2022-09-23T12:35:54.992Z,6.18
2022-09-23T12:38:26.272Z,7.05
2022-09-23T12:40:54.020Z,6.30
2022-09-23T12:43:30.301Z,5.50
2022-09-23T12:46:16.491Z,5.85
2022-09-23T12:48:44.107Z,5.28
2022-09-23T12:51:10.384Z,4.75
2022-09-23T12:53:40.056Z,4.25
2022-09-23T12:56:18.090Z,5.03
2022-09-23T12:58:44.687Z,4.82
2022-09-23T13:01:14.170Z,4.80
2022-09-23T13:04:08.040Z,4.00
2022-09-23T13:06:40.465Z,4.30
2022-09-23T13:11:33.141Z,4.40
2022-09-23T13:14:01.833Z,3.85
2022-09-23T13:16:32.863Z,4.38
2022-09-23T13:19:00.586Z,3.75
2022-09-23T13:21:45.624Z,4.43
2022-09-23T13:24:36.242Z,3.85
2022-09-23T13:27:02.558Z,4.70
2022-09-23T13:29:37.302Z,3.80
2022-09-23T13:32:05.443Z,3.55
2022-09-23T13:34:36.717Z,3.75
2022-09-23T13:37:21.596Z,3.42
2022-09-23T13:39:49.248Z,3.78
2022-09-23T13:42:34.602Z,3.40
2022-09-23T13:45:00.979Z,3.20
2022-09-23T13:47:29.386Z,3.90
2022-09-23T13:49:56.157Z,4.13
2022-09-23T13:52:25.101Z,3.40
2022-09-23T13:54:51.771Z,2.90
2022-09-23T13:57:31.581Z,2.88
2022-09-23T14:00:01.669Z,3.20
2022-09-23T14:02:30.630Z,3.00
2022-09-23T14:04:58.535Z,2.78
2022-09-23T14:07:25.022Z,2.20
2022-09-23T14:09:52.169Z,2.03
2022-09-23T14:12:22.059Z,2.13
2022-09-23T14:14:49.682Z,2.40
2022-09-23T14:17:18.309Z,2.20
2022-09-23T14:19:45.029Z,2.15
2022-09-23T14:22:28.164Z,1.98
2022-09-23T14:24:55.686Z,2.28
2022-09-23T14:27:29.925Z,2.10
2022-09-23T14:29:56.474Z,2.20
2022-09-23T14:32:25.132Z,2.72
2022-09-23T14:35:00.771Z,2.65
2022-09-23T14:38:05.799Z,2.95
2022-09-23T14:40:33.317Z,2.55
2022-09-23T14:43:02.164Z,3.28
2022-09-23T14:45:31.040Z,3.78
2022-09-23T14:47:59.113Z,3.50
2022-09-23T14:50:45.628Z,3.50
2022-09-23T14:53:23.985Z,2.67
2022-09-23T14:55:57.329Z,2.67
2022-09-23T14:58:25.594Z,3.45
2022-09-23T15:00:56.424Z,3.13
2022-09-23T15:03:22.995Z,2.90
2022-09-23T15:05:51.141Z,3.25
2022-09-23T15:08:21.758Z,3.33
2022-09-23T15:10:48.814Z,2.95
2022-09-23T15:13:17.534Z,3.60
2022-09-23T15:15:44.039Z,3.45
2022-09-23T15:18:22.457Z,3.58
2022-09-23T15:20:50.583Z,3.05
2022-09-23T15:23:35.855Z,3.33
2022-09-23T15:26:05.542Z,3.42
2022-09-23T15:28:31.876Z,2.88
2022-09-23T15:30:58.200Z,3.00
2022-09-23T15:33:28.020Z,3.10
2022-09-23T15:35:54.459Z,3.60
2022-09-23T15:38:21.571Z,3.70
2022-09-23T15:40:48.983Z,4.05
2022-09-23T15:43:20.663Z,4.05
2022-09-23T15:48:15.989Z,4.40
2022-09-23T15:50:42.853Z,4.28
2022-09-23T15:53:16.686Z,4.10
2022-09-23T15:55:43.034Z,4.95
2022-09-23T15:58:09.425Z,6.00
2022-09-23T16:00:36.515Z,5.47
2022-09-23T16:03:04.148Z,6.07
2022-09-23T16:05:33.401Z,5.30
2022-09-23T16:08:03.713Z,4.82
2022-09-23T16:10:33.970Z,5.40
2022-09-23T16:13:01.396Z,4.80
2022-09-23T16:15:28.514Z,6.43
2022-09-23T16:17:55.247Z,5.75
2022-09-23T16:20:21.763Z,5.70
2022-09-23T16:22:52.706Z,5.63
2022-09-23T16:25:19.811Z,6.13
2022-09-23T16:27:46.124Z,5.25
2022-09-23T16:30:12.600Z,5.97
2022-09-23T16:32:39.028Z,5.88
2022-09-23T16:35:05.979Z,5.90
2022-09-23T16:37:33.277Z,6.13
2022-09-23T16:40:00.151Z,6.65
2022-09-23T16:42:28.053Z,8.80
2022-09-23T16:44:54.373Z,7.35
2022-09-23T16:47:20.720Z,6.70
2022-09-23T16:49:47.133Z,8.02
2022-09-23T16:52:15.068Z,6.95
2022-09-23T16:54:43.328Z,5.72
2022-09-23T16:57:10.257Z,6.35
2022-09-23T16:59:55.518Z,6.40
2022-09-23T17:02:40.543Z,6.05
2022-09-23T17:05:07.176Z,5.72
2022-09-23T17:07:33.481Z,6.50
2022-09-23T17:10:00.059Z,6.60
2022-09-23T17:12:28.929Z,6.75
2022-09-23T17:14:55.305Z,7.68
2022-09-23T17:17:22.172Z,7.35
2022-09-23T17:19:48.761Z,6.95
2022-09-23T17:22:15.097Z,7.85
2022-09-23T17:24:41.484Z,7.45
2022-09-23T17:27:07.894Z,7.82
2022-09-23T17:29:34.186Z,7.82
2022-09-23T17:32:00.651Z,12.05
2022-09-23T17:34:28.791Z,15.40
2022-09-23T17:36:55.553Z,15.05
2022-09-23T17:39:21.934Z,10.77
2022-09-23T17:41:48.240Z,8.88
2022-09-23T17:44:16.065Z,7.32
2022-09-23T17:46:42.650Z,10.70
2022-09-23T17:49:09.587Z,13.23
2022-09-23T17:51:36.241Z,13.18
2022-09-23T17:54:02.606Z,13.05
2022-09-23T17:56:29.923Z,13.02
2022-09-23T17:58:59.317Z,23.00
2022-09-23T18:01:25.994Z,15.02
2022-09-23T18:03:56.510Z,13.10
2022-09-23T18:06:23.660Z,13.20
2022-09-23T18:08:50.473Z,11.55
2022-09-23T18:11:18.509Z,8.85
2022-09-23T18:13:49.646Z,8.77
2022-09-23T18:16:16.021Z,9.15
2022-09-23T18:18:43.066Z,11.20
2022-09-23T18:21:10.333Z,9.50
2022-09-23T18:23:37.280Z,11.80
2022-09-23T18:26:03.890Z,11.68
2022-09-23T18:28:34.070Z,10.85
2022-09-23T18:31:01.428Z,10.00
2022-09-23T18:33:27.803Z,9.80
2022-09-23T18:35:54.105Z,10.00
2022-09-23T18:38:20.641Z,10.52
2022-09-23T18:40:56.157Z,10.27
2022-09-23T18:43:25.687Z,11.98
2022-09-23T18:45:59.627Z,11.27
2022-09-23T18:48:45.315Z,11.98
2022-09-23T18:51:12.405Z,11.65
2022-09-23T18:53:39.161Z,10.85
2022-09-23T18:56:06.330Z,11.77
2022-09-23T18:58:32.685Z,14.43
2022-09-23T19:01:06.393Z,14.30
2022-09-23T19:03:33.789Z,19.77
2022-09-23T19:06:26.470Z,15.57
2022-09-23T19:08:53.914Z,12.27
2022-09-23T19:11:20.834Z,12.25
2022-09-23T19:13:47.173Z,13.13
2022-09-23T19:16:14.577Z,12.43
2022-09-23T19:18:41.901Z,12.63
2022-09-23T19:21:09.808Z,13.25
2022-09-23T19:23:36.112Z,12.50
2022-09-23T19:26:04.241Z,12.30
2022-09-23T19:28:30.891Z,12.88
2022-09-23T19:30:57.321Z,12.27
2022-09-23T19:33:23.998Z,10.82
2022-09-23T19:35:51.706Z,11.98
2022-09-23T19:38:20.052Z,11.77
2022-09-23T19:40:49.909Z,12.15
2022-09-23T19:43:16.863Z,13.35
2022-09-23T19:45:44.232Z,11.88
2022-09-23T19:48:10.740Z,11.35
2022-09-23T19:50:37.688Z,12.35
2022-09-23T19:53:05.676Z,11.70
2022-09-23T19:55:35.410Z,12.32
2022-09-23T19:58:02.149Z,13.13
2022-09-23T20:00:28.698Z,12.25
2022-09-23T20:02:55.121Z,13.02
2022-09-23T20:05:21.648Z,12.25
2022-09-23T20:07:47.958Z,13.88
2022-09-23T20:10:14.641Z,12.35
2022-09-23T20:12:44.003Z,12.55
2022-09-23T20:15:11.734Z,14.32
2022-09-23T20:17:39.922Z,14.23
2022-09-23T20:20:07.481Z,15.65
2022-09-23T20:22:33.958Z,20.02
2022-09-23T20:25:01.515Z,19.48
2022-09-23T20:27:31.107Z,21.33
2022-09-23T20:29:57.920Z,19.83
2022-09-23T20:32:24.578Z,20.42
2022-09-23T20:34:51.815Z,17.42
2022-09-23T20:37:20.207Z,16.48
2022-09-23T20:39:47.468Z,17.25
2022-09-23T20:42:16.288Z,16.75
2022-09-23T20:44:43.405Z,17.92
2022-09-23T20:47:14.002Z,16.23
2022-09-23T20:49:42.786Z,17.60
2022-09-23T20:52:16.382Z,17.17
2022-09-23T20:54:43.099Z,17.67
2022-09-23T20:57:12.992Z,17.50
2022-09-23T20:59:40.513Z,20.25
2022-09-23T21:02:07.719Z,18.75
2022-09-23T21:04:34.910Z,18.40
2022-09-23T21:07:01.249Z,20.98
2022-09-23T21:09:28.602Z,19.40
2022-09-23T21:11:55.087Z,20.88
2022-09-23T21:14:22.348Z,21.65
2022-09-23T21:16:52.704Z,18.70
2022-09-23T21:19:19.453Z,19.98
2022-09-23T21:21:45.944Z,22.98
2022-09-23T21:24:42.216Z,20.20
2022-09-23T21:26:58.621Z,18.63
2022-09-23T21:29:25.028Z,18.17
2022-09-23T21:31:51.413Z,15.60
2022-09-23T21:34:17.877Z,17.20
2022-09-23T21:36:44.307Z,16.08
2022-09-23T21:39:11.446Z,14.80
2022-09-23T21:41:38.197Z,16.10
2022-09-23T21:44:05.032Z,17.38
2022-09-23T21:46:33.564Z,16.95
2022-09-23T21:49:03.718Z,17.33
2022-09-23T21:51:40.118Z,17.90
2022-09-23T21:54:11.334Z,18.75
2022-09-23T21:56:37.821Z,16.23
2022-09-23T21:59:05.190Z,16.83
2022-09-23T22:01:36.086Z,17.58
2022-09-23T22:04:05.020Z,17.98
2022-09-23T22:06:31.975Z,17.50
2022-09-23T22:08:59.676Z,16.88
2022-09-23T22:11:49.266Z,18.17
2022-09-23T22:14:16.590Z,19.10
2022-09-23T22:16:43.060Z,16.73
2022-09-23T22:19:10.625Z,18.50
2022-09-23T22:21:38.637Z,20.25
2022-09-23T22:24:06.694Z,17.45
2022-09-23T22:26:34.505Z,18.77
2022-09-23T22:29:19.815Z,24.50
2022-09-23T22:32:04.798Z,19.00
2022-09-23T22:34:49.116Z,20.52
2022-09-23T22:37:17.823Z,21.10
2022-09-23T22:39:44.758Z,21.00
2022-09-23T22:42:12.918Z,23.92
2022-09-23T22:44:39.262Z,24.50
2022-09-23T22:47:05.782Z,24.20
2022-09-23T22:49:32.336Z,21.98
2022-09-23T22:51:59.336Z,22.50
2022-09-23T22:54:33.423Z,21.23
2022-09-23T22:57:03.471Z,21.63
2022-09-23T22:59:29.990Z,22.20
2022-09-23T23:01:57.137Z,21.20
2022-09-23T23:04:23.710Z,19.85
2022-09-23T23:06:50.868Z,21.85
2022-09-23T23:09:18.425Z,20.73
2022-09-23T23:11:45.256Z,19.90
2022-09-23T23:14:12.628Z,18.33
2022-09-23T23:16:39.241Z,17.70
2022-09-23T23:19:09.431Z,14.82
2022-09-23T23:21:36.332Z,16.08
2022-09-23T23:24:04.337Z,16.75
2022-09-23T23:26:31.885Z,18.25
2022-09-23T23:28:58.310Z,15.27
2022-09-23T23:31:26.293Z,16.55
2022-09-23T23:33:52.778Z,15.00
2022-09-23T23:36:20.234Z,16.25
2022-09-23T23:38:47.877Z,14.23
2022-09-23T23:41:15.545Z,14.18
2022-09-23T23:43:43.059Z,14.18
2022-09-23T23:46:10.051Z,14.18
2022-09-23T23:48:37.266Z,15.40
2022-09-23T23:51:05.669Z,15.00
2022-09-23T23:53:33.461Z,15.75
2022-09-23T23:56:07.226Z,14.73
2022-09-23T23:58:33.985Z,14.90
